Woodlawn, Illinois
Current Conditions -  °F | °C
As of 3:15 PM on Thursday 20 Nov 2014 (Local Time) from KMVN Reporting Station
Broken Clouds Broken Clouds  
Wind Chill: 30°   Ceiling: 9500
Heat Index: 36°   Visibility: 10mi
Dew Point: 18°   Wind: 7mph
Humidity: 48%   Direction: 250°WSW
Pressure: 30.22"   Gusts: NA
Location:  38.33°N, 89.03°W
Report Text: KMVN 202115Z AUTO 25006KT 10SM BKN095 02/M08 A3022 RMK AO1
Loading
Personal Weather Stations






























Interactive Weather Map New forecast layout! Learn more

10-Day Weather Forecast

Advertisements
Track Severe Weather on mobile